Time;durP1;ratioP1;P1;durP2;ratioP2;P2;SDS_P1;SDS_P2;PMS_P1;PMS_P2;Temp;Humidity;BMP_temperature;BMP_pressure;BME280_temperature;BME280_humidity;BME280_pressure;Samples;Min_cycle;Max_cycle;Signal;HPM_P1;HPM_P2
2021/01/03 00:01:10;;;;;;;10.15;8.32;;;2.30;99.90;;;;;;5074556;28;20218;-75
2021/01/03 00:03:37;;;;;;;15.70;10.18;;;2.40;99.90;;;;;;5074704;28;20242;-75
2021/01/03 00:06:04;;;;;;;13.38;9.73;;;2.30;99.90;;;;;;5074600;28;20186;-75
2021/01/03 00:08:29;;;;;;;14.00;9.88;;;2.30;99.90;;;;;;5074134;28;20188;-75
2021/01/03 00:10:55;;;;;;;13.60;9.13;;;2.30;99.90;;;;;;5074529;28;20185;-75
2021/01/03 00:13:21;;;;;;;14.57;9.87;;;2.30;99.90;;;;;;5074558;28;20677;-75
2021/01/03 00:15:46;;;;;;;13.37;9.70;;;2.30;99.90;;;;;;5074505;28;20586;-75
2021/01/03 00:18:12;;;;;;;10.83;7.90;;;2.30;99.90;;;;;;5073880;28;20261;-75
2021/01/03 00:20:38;;;;;;;12.17;8.53;;;2.30;99.90;;;;;;5074254;28;20182;-74
2021/01/03 00:23:04;;;;;;;13.95;9.32;;;2.30;99.90;;;;;;5074284;28;20186;-75
2021/01/03 00:25:30;;;;;;;11.50;8.27;;;2.20;99.90;;;;;;5074001;28;20186;-75
2021/01/03 00:27:55;;;;;;;13.85;9.60;;;2.20;99.90;;;;;;5072814;28;20661;-75
2021/01/03 00:30:25;;;;;;;12.77;9.57;;;2.20;99.90;;;;;;5074162;28;20190;-74
2021/01/03 00:32:52;;;;;;;13.13;9.45;;;2.20;99.90;;;;;;5074190;28;20202;-75
2021/01/03 00:35:28;;;;;;;11.70;8.82;;;2.20;99.90;;;;;;5073294;28;20196;-76
2021/01/03 00:38:00;;;;;;;12.77;9.70;;;2.20;99.90;;;;;;5074265;28;20508;-75
2021/01/03 00:40:26;;;;;;;11.20;7.80;;;2.20;99.90;;;;;;5073722;28;20194;-75
2021/01/03 00:42:52;;;;;;;10.10;7.75;;;2.20;99.90;;;;;;5074121;28;20190;-75
2021/01/03 00:45:18;;;;;;;15.87;8.33;;;2.20;99.90;;;;;;5073708;28;20549;-75
2021/01/03 00:47:43;;;;;;;12.60;8.65;;;2.20;99.90;;;;;;5073829;28;20342;-74
2021/01/03 00:50:10;;;;;;;10.53;8.20;;;2.20;99.90;;;;;;5073726;28;20272;-74
2021/01/03 00:52:36;;;;;;;10.93;8.52;;;2.20;99.90;;;;;;5073254;28;20272;-75
2021/01/03 00:55:04;;;;;;;10.43;7.55;;;2.20;99.90;;;;;;5073617;28;20197;-74
2021/01/03 00:57:29;;;;;;;8.82;7.88;;;2.20;99.90;;;;;;5073318;28;20189;-75
2021/01/03 00:59:55;;;;;;;9.63;7.10;;;2.30;99.90;;;;;;5073619;28;20194;-75
2021/01/03 01:02:20;;;;;;;13.93;8.33;;;2.20;99.90;;;;;;5073728;28;20668;-75
2021/01/03 01:04:46;;;;;;;13.10;8.93;;;2.20;99.90;;;;;;5073353;28;20364;-75
2021/01/03 01:07:11;;;;;;;13.40;10.23;;;2.20;99.90;;;;;;5073971;28;20174;-75
2021/01/03 01:09:37;;;;;;;10.40;7.70;;;2.20;99.90;;;;;;5073237;28;20177;-74
2021/01/03 01:12:02;;;;;;;10.80;7.67;;;2.20;99.90;;;;;;5074327;28;20182;-75
2021/01/03 01:14:28;;;;;;;11.97;9.40;;;2.20;99.90;;;;;;5073838;28;20209;-75
2021/01/03 01:16:53;;;;;;;12.70;8.90;;;2.10;99.90;;;;;;5073837;28;20417;-75
2021/01/03 01:19:21;;;;;;;10.03;8.20;;;2.10;99.90;;;;;;5073603;28;20185;-75
2021/01/03 01:21:47;;;;;;;13.85;8.90;;;2.20;99.90;;;;;;5073446;28;20265;-75
2021/01/03 01:24:12;;;;;;;14.60;9.93;;;2.20;99.90;;;;;;5073810;28;20208;-75
2021/01/03 01:26:38;;;;;;;12.20;7.97;;;2.10;99.90;;;;;;5073308;28;20189;-75
2021/01/03 01:29:03;;;;;;;11.27;7.73;;;2.10;99.90;;;;;;5073835;28;20641;-75
2021/01/03 01:31:29;;;;;;;13.17;8.67;;;2.10;99.90;;;;;;5073287;28;20186;-75
2021/01/03 01:33:54;;;;;;;9.07;7.40;;;2.10;99.90;;;;;;5073461;28;20695;-75
2021/01/03 01:36:20;;;;;;;13.73;9.20;;;2.10;99.90;;;;;;5073093;28;20665;-75
2021/01/03 01:38:45;;;;;;;13.13;8.37;;;2.10;99.90;;;;;;5073323;28;20247;-74
2021/01/03 01:41:11;;;;;;;11.40;8.20;;;2.20;99.90;;;;;;5073127;28;20249;-75
2021/01/03 01:43:36;;;;;;;13.07;10.63;;;2.10;99.90;;;;;;5073136;28;20184;-75
2021/01/03 01:46:04;;;;;;;10.47;8.77;;;2.10;99.90;;;;;;5072994;28;20189;-75
2021/01/03 01:48:35;;;;;;;12.40;8.95;;;2.10;99.90;;;;;;5073013;28;20308;-75
2021/01/03 01:51:07;;;;;;;10.75;7.93;;;2.10;99.90;;;;;;5073252;28;20173;-75
2021/01/03 01:53:32;;;;;;;11.98;9.02;;;2.10;99.90;;;;;;5070968;28;20234;-75
2021/01/03 01:56:32;;;;;;;9.13;7.43;;;2.10;99.90;;;;;;5072835;28;20192;-75
2021/01/03 01:59:11;;;;;;;9.52;7.38;;;2.10;99.90;;;;;;5073053;28;20566;-75
2021/01/03 02:02:00;;;;;;;11.50;8.20;;;2.10;99.90;;;;;;5072866;28;20181;-75
2021/01/03 02:04:35;;;;;;;10.80;7.93;;;2.10;99.90;;;;;;5072959;28;20167;-75
2021/01/03 02:07:05;;;;;;;11.18;8.30;;;2.10;99.90;;;;;;5072664;28;20590;-75
2021/01/03 02:09:41;;;;;;;11.73;8.77;;;2.00;99.90;;;;;;5072208;28;20174;-75
2021/01/03 02:12:30;;;;;;;13.90;8.35;;;2.00;99.90;;;;;;5072617;28;20617;-74
2021/01/03 02:14:56;;;;;;;13.75;8.32;;;2.00;99.90;;;;;;5072671;28;20197;-75
2021/01/03 02:17:22;;;;;;;10.88;8.40;;;2.00;99.90;;;;;;5072505;28;20186;-75
2021/01/03 02:19:50;;;;;;;11.13;8.00;;;2.00;99.90;;;;;;5072640;28;20178;-75
2021/01/03 02:22:30;;;;;;;12.23;8.73;;;2.00;99.90;;;;;;5072375;28;20192;-74
2021/01/03 02:25:01;;;;;;;10.93;8.75;;;2.00;99.90;;;;;;5072578;28;20173;-75
2021/01/03 02:28:20;;;;;;;12.30;9.98;;;1.90;99.90;;;;;;5072166;28;20257;-75
2021/01/03 02:30:51;;;;;;;10.70;7.82;;;1.90;99.90;;;;;;5071180;28;20269;-74
2021/01/03 02:33:30;;;;;;;13.73;8.23;;;1.80;99.90;;;;;;5072529;28;20224;-75
2021/01/03 02:36:00;;;;;;;12.82;9.27;;;1.80;99.90;;;;;;5052452;28;20171;-75
2021/01/03 02:38:33;;;;;;;17.10;11.45;;;1.70;99.90;;;;;;5056890;28;20182;-75
2021/01/03 02:40:58;;;;;;;14.45;10.23;;;1.70;99.90;;;;;;5072655;28;20206;-75
2021/01/03 02:43:24;;;;;;;12.53;9.17;;;1.70;99.90;;;;;;5071045;28;20689;-75
2021/01/03 02:45:50;;;;;;;13.87;10.90;;;1.70;99.90;;;;;;5071913;28;20177;-75
2021/01/03 02:48:20;;;;;;;14.07;10.18;;;1.70;99.90;;;;;;5071079;28;20234;-75
2021/01/03 02:50:46;;;;;;;15.00;9.95;;;1.70;99.90;;;;;;5072357;28;20237;-75
2021/01/03 02:53:12;;;;;;;14.63;9.30;;;1.70;99.90;;;;;;5072351;28;20271;-75
2021/01/03 02:55:38;;;;;;;12.30;9.63;;;1.70;99.90;;;;;;5071682;28;20178;-75
2021/01/03 02:58:04;;;;;;;11.47;9.07;;;1.70;99.90;;;;;;5072145;28;20196;-74
2021/01/03 03:00:33;;;;;;;12.20;8.55;;;1.70;99.90;;;;;;5072277;28;20182;-75
2021/01/03 03:02:59;;;;;;;14.95;11.10;;;1.70;99.90;;;;;;5072438;28;20178;-75
2021/01/03 03:05:25;;;;;;;15.20;9.70;;;1.70;99.90;;;;;;5071897;28;20189;-75
2021/01/03 03:07:51;;;;;;;13.95;10.63;;;1.70;99.90;;;;;;5072220;28;20420;-74
2021/01/03 03:10:18;;;;;;;15.30;11.65;;;1.70;99.90;;;;;;5072365;28;20257;-75
2021/01/03 03:12:51;;;;;;;14.48;9.02;;;1.70;99.90;;;;;;5072159;28;20193;-74
2021/01/03 03:15:18;;;;;;;15.00;8.95;;;1.70;99.90;;;;;;5071803;28;20182;-75
2021/01/03 03:17:43;;;;;;;13.63;8.95;;;1.70;99.90;;;;;;5071987;28;20251;-75
2021/01/03 03:20:11;;;;;;;13.77;10.30;;;1.70;99.90;;;;;;5071958;28;20190;-75
2021/01/03 03:22:36;;;;;;;12.20;8.68;;;1.60;99.90;;;;;;5075183;28;20269;-75
2021/01/03 03:25:04;;;;;;;13.70;10.03;;;1.60;99.90;;;;;;5076047;28;20257;-75
2021/01/03 03:27:30;;;;;;;13.55;9.75;;;1.60;99.90;;;;;;5075880;28;20174;-75
2021/01/03 03:29:55;;;;;;;14.17;9.50;;;1.70;99.90;;;;;;5075953;28;20181;-74
2021/01/03 03:32:21;;;;;;;15.47;11.17;;;1.70;99.90;;;;;;5075567;28;20182;-75
2021/01/03 03:34:46;;;;;;;15.77;10.73;;;1.60;99.90;;;;;;5075749;28;20891;-74
2021/01/03 03:37:12;;;;;;;17.00;10.30;;;1.60;99.90;;;;;;5075751;28;20257;-75
2021/01/03 03:39:37;;;;;;;15.43;9.60;;;1.60;99.90;;;;;;5075694;28;20200;-74
2021/01/03 03:42:03;;;;;;;16.87;10.30;;;1.60;99.90;;;;;;5075477;28;20188;-74
2021/01/03 03:44:29;;;;;;;13.70;9.27;;;1.60;99.90;;;;;;5075717;28;20178;-75
2021/01/03 03:46:57;;;;;;;15.20;10.07;;;1.60;99.90;;;;;;5075592;28;20202;-74
2021/01/03 03:49:23;;;;;;;14.52;11.00;;;1.60;99.90;;;;;;5075263;28;21005;-75
2021/01/03 03:51:53;;;;;;;16.07;10.90;;;1.60;99.90;;;;;;5075424;28;20178;-74
2021/01/03 03:54:18;;;;;;;13.65;10.30;;;1.50;99.90;;;;;;5075046;28;20476;-74
2021/01/03 03:56:53;;;;;;;16.73;9.97;;;1.50;99.90;;;;;;5074823;28;20201;-74
2021/01/03 03:59:19;;;;;;;16.23;11.48;;;1.50;99.90;;;;;;5075274;28;20224;-75
2021/01/03 04:01:45;;;;;;;14.60;9.45;;;1.50;99.90;;;;;;5073808;28;20288;-74
2021/01/03 04:04:11;;;;;;;12.90;8.80;;;1.50;99.90;;;;;;5075033;28;20189;-74
2021/01/03 04:06:36;;;;;;;15.98;10.90;;;1.50;99.90;;;;;;5075541;28;20448;-74
2021/01/03 04:09:02;;;;;;;19.87;10.70;;;1.50;99.90;;;;;;5075250;28;20262;-74
2021/01/03 04:11:28;;;;;;;11.75;8.85;;;1.50;99.90;;;;;;5075130;28;20182;-75
2021/01/03 04:13:54;;;;;;;15.63;11.23;;;1.50;99.90;;;;;;5075130;28;20330;-74
2021/01/03 04:16:19;;;;;;;17.73;10.50;;;1.50;99.90;;;;;;5075190;28;20181;-74
2021/01/03 04:18:45;;;;;;;17.93;10.77;;;1.50;99.90;;;;;;5075113;28;20185;-74
2021/01/03 04:21:12;;;;;;;16.53;8.83;;;1.50;99.90;;;;;;5074738;28;20189;-75
2021/01/03 04:23:38;;;;;;;14.18;9.25;;;1.50;99.90;;;;;;5074591;28;20525;-74
2021/01/03 04:26:04;;;;;;;14.20;9.53;;;1.50;99.90;;;;;;5074620;28;20182;-74
2021/01/03 04:28:29;;;;;;;14.80;9.67;;;1.50;99.90;;;;;;5074145;28;20657;-75
2021/01/03 04:30:55;;;;;;;17.20;10.87;;;1.50;99.90;;;;;;5074348;28;20528;-74
2021/01/03 04:33:20;;;;;;;14.23;10.03;;;1.50;99.90;;;;;;5073887;28;20300;-74
2021/01/03 04:35:48;;;;;;;12.80;9.10;;;1.40;99.90;;;;;;5073909;28;20239;-74
2021/01/03 04:38:14;;;;;;;13.10;8.57;;;1.40;99.90;;;;;;5074399;28;20185;-74
2021/01/03 04:40:40;;;;;;;13.20;9.70;;;1.40;99.90;;;;;;5074097;28;20197;-74
2021/01/03 04:43:11;;;;;;;11.53;8.50;;;1.40;99.90;;;;;;5073848;28;20420;-74
2021/01/03 04:45:39;;;;;;;13.90;9.50;;;1.50;99.90;;;;;;5073771;28;20182;-73
2021/01/03 04:48:08;;;;;;;13.38;8.57;;;1.50;99.90;;;;;;5074087;28;20230;-74
2021/01/03 04:50:52;;;;;;;16.13;10.25;;;1.50;99.90;;;;;;5073780;28;20189;-75
2021/01/03 04:53:41;;;;;;;14.38;9.55;;;1.50;99.90;;;;;;5068298;28;20214;-75
2021/01/03 04:56:15;;;;;;;13.00;10.05;;;1.50;99.90;;;;;;5066728;28;20221;-74
2021/01/03 04:58:55;;;;;;;13.90;9.63;;;1.50;99.90;;;;;;5072486;28;20266;-74
2021/01/03 05:01:38;;;;;;;15.05;11.23;;;1.50;99.90;;;;;;5072169;28;20180;-75
2021/01/03 05:04:32;;;;;;;14.52;9.48;;;1.50;99.90;;;;;;5068394;28;20174;-74
2021/01/03 05:07:01;;;;;;;14.00;8.90;;;1.50;99.90;;;;;;5073252;28;20236;-75
2021/01/03 05:09:27;;;;;;;15.43;10.02;;;1.50;99.90;;;;;;5062786;28;20178;-75
2021/01/03 05:12:16;;;;;;;13.13;10.10;;;1.50;99.90;;;;;;5071628;28;20683;-75
2021/01/03 05:15:08;;;;;;;14.18;11.15;;;1.50;99.90;;;;;;5070478;28;20220;-75
2021/01/03 05:17:34;;;;;;;13.13;8.80;;;1.50;99.90;;;;;;5068872;28;20649;-75
2021/01/03 05:19:59;;;;;;;14.23;8.90;;;1.50;99.90;;;;;;5073237;28;20193;-75
2021/01/03 05:22:31;;;;;;;13.50;9.43;;;1.50;99.90;;;;;;5072504;28;20198;-75
2021/01/03 05:25:02;;;;;;;17.70;11.77;;;1.50;99.90;;;;;;5068347;28;20537;-74
2021/01/03 05:27:28;;;;;;;12.40;10.35;;;1.40;99.90;;;;;;5078113;28;20586;-74
2021/01/03 05:30:11;;;;;;;13.55;10.45;;;1.50;99.90;;;;;;5072316;28;20274;-75
2021/01/03 05:32:36;;;;;;;13.50;9.20;;;1.50;99.90;;;;;;5069568;28;20549;-74
2021/01/03 05:35:17;;;;;;;16.97;9.90;;;1.50;99.90;;;;;;5070836;28;20190;-75
2021/01/03 05:37:44;;;;;;;14.73;10.07;;;1.50;99.90;;;;;;5071332;28;20190;-74
2021/01/03 05:40:23;;;;;;;14.50;10.65;;;1.50;99.90;;;;;;5072030;28;20178;-75
2021/01/03 05:43:03;;;;;;;16.83;9.48;;;1.50;99.90;;;;;;5077908;28;20182;-74
2021/01/03 05:45:29;;;;;;;17.30;11.15;;;1.50;99.90;;;;;;5065111;28;20604;-76
2021/01/03 05:48:00;;;;;;;17.85;11.20;;;1.50;99.90;;;;;;5070223;28;20704;-74
2021/01/03 05:50:40;;;;;;;16.70;10.27;;;1.50;99.90;;;;;;5071045;28;20193;-75
2021/01/03 05:53:22;;;;;;;18.35;11.65;;;1.50;99.90;;;;;;5071514;28;20240;-74
2021/01/03 05:56:03;;;;;;;17.70;9.85;;;1.50;99.90;;;;;;5071879;28;20176;-75
2021/01/03 05:58:41;;;;;;;17.42;11.23;;;1.40;99.90;;;;;;5065400;28;20269;-74
2021/01/03 06:01:21;;;;;;;16.73;9.68;;;1.40;99.90;;;;;;5072345;28;20532;-75
2021/01/03 06:04:07;;;;;;;20.63;12.05;;;1.40;99.90;;;;;;5070567;28;20679;-75
2021/01/03 06:06:51;;;;;;;17.55;10.98;;;1.40;99.90;;;;;;5069880;28;20185;-74
2021/01/03 06:09:19;;;;;;;15.32;9.25;;;1.40;99.90;;;;;;5071748;28;20193;-75
2021/01/03 06:12:00;;;;;;;14.60;9.90;;;1.40;99.90;;;;;;5072069;28;20189;-75
2021/01/03 06:14:27;;;;;;;13.40;10.65;;;1.40;99.90;;;;;;5064392;28;20221;-75
2021/01/03 06:17:03;;;;;;;17.75;10.70;;;1.50;99.90;;;;;;5064189;28;20258;-75
2021/01/03 06:19:41;;;;;;;18.77;11.57;;;1.40;99.90;;;;;;5066813;28;20257;-75
2021/01/03 06:22:35;;;;;;;17.48;10.55;;;1.40;99.90;;;;;;5071989;28;20651;-75
2021/01/03 06:25:12;;;;;;;14.73;9.43;;;1.50;99.90;;;;;;5068558;28;20595;-74
2021/01/03 06:27:38;;;;;;;16.52;10.15;;;1.40;99.90;;;;;;5065567;28;20198;-75
2021/01/03 06:30:13;;;;;;;14.47;10.50;;;1.40;99.90;;;;;;5071809;28;20227;-75
2021/01/03 06:32:41;;;;;;;14.30;9.90;;;1.40;99.90;;;;;;5071279;28;20181;-74
2021/01/03 06:35:18;;;;;;;15.95;11.10;;;1.40;99.90;;;;;;5071822;28;20178;-75
2021/01/03 06:38:10;;;;;;;15.65;10.98;;;1.40;99.90;;;;;;5065656;28;20631;-75
2021/01/03 06:41:00;;;;;;;18.92;10.88;;;1.40;99.90;;;;;;5058878;28;20201;-75
2021/01/03 06:43:28;;;;;;;16.00;12.02;;;1.40;99.90;;;;;;5060205;28;20783;-75
2021/01/03 06:46:06;;;;;;;15.38;10.73;;;1.50;99.90;;;;;;5068601;28;20194;-74
2021/01/03 06:48:55;;;;;;;19.42;12.10;;;1.40;99.90;;;;;;5067769;28;20274;-74
2021/01/03 06:51:48;;;;;;;19.92;13.25;;;1.40;99.90;;;;;;5065776;28;20186;-74
2021/01/03 06:54:33;;;;;;;21.25;13.40;;;1.40;99.90;;;;;;5070940;28;20248;-74
2021/01/03 06:57:31;;;;;;;17.92;10.75;;;1.40;99.90;;;;;;5073018;28;20634;-74
2021/01/03 07:00:19;;;;;;;19.30;11.90;;;1.40;99.90;;;;;;5071885;28;20216;-74
2021/01/03 07:02:49;;;;;;;17.85;11.70;;;1.40;99.90;;;;;;5075501;28;20239;-74
2021/01/03 07:05:16;;;;;;;17.13;10.65;;;1.40;99.90;;;;;;5075444;28;20200;-75
2021/01/03 07:07:57;;;;;;;18.00;12.27;;;1.40;99.90;;;;;;5073892;28;20182;-75
2021/01/03 07:10:35;;;;;;;20.88;11.98;;;1.40;99.90;;;;;;5078254;28;20186;-74
2021/01/03 07:13:00;;;;;;;14.48;10.95;;;1.40;99.90;;;;;;5078457;28;20228;-74
2021/01/03 07:15:26;;;;;;;19.33;11.40;;;1.50;99.90;;;;;;5076049;28;20540;-75
2021/01/03 07:17:51;;;;;;;19.13;12.67;;;1.50;99.90;;;;;;5073996;28;20196;-74
2021/01/03 07:20:30;;;;;;;22.27;11.77;;;1.50;99.90;;;;;;5078512;28;20186;-74
2021/01/03 07:23:20;;;;;;;14.25;10.13;;;1.50;99.90;;;;;;5067349;28;20200;-74
2021/01/03 07:25:55;;;;;;;15.35;10.20;;;1.50;99.90;;;;;;5077837;28;20181;-74
2021/01/03 07:28:30;;;;;;;13.55;10.27;;;1.50;99.90;;;;;;5077808;28;20258;-74
2021/01/03 07:31:11;;;;;;;18.05;11.05;;;1.50;99.90;;;;;;5076286;28;20717;-74
2021/01/03 07:33:59;;;;;;;21.30;10.80;;;1.50;99.90;;;;;;5074054;28;20687;-75
2021/01/03 07:36:42;;;;;;;16.17;10.57;;;1.60;99.90;;;;;;5070075;28;20226;-75
2021/01/03 07:39:14;;;;;;;19.27;10.93;;;1.60;99.90;;;;;;5074408;28;20525;-74
2021/01/03 07:41:40;;;;;;;17.92;10.68;;;1.60;99.90;;;;;;5076428;28;20182;-74
2021/01/03 07:44:10;;;;;;;21.58;11.43;;;1.60;99.90;;;;;;5077632;28;20196;-75
2021/01/03 07:46:39;;;;;;;13.43;9.27;;;1.60;99.90;;;;;;5076595;28;20182;-74
2021/01/03 07:49:36;;;;;;;11.18;8.65;;;1.60;99.90;;;;;;5076747;28;20236;-74
2021/01/03 07:52:09;;;;;;;18.88;11.77;;;1.70;99.90;;;;;;5073923;28;20189;-74
2021/01/03 07:54:35;;;;;;;12.65;9.15;;;1.70;99.90;;;;;;5074123;28;20247;-74
2021/01/03 07:57:07;;;;;;;18.97;10.27;;;1.70;99.90;;;;;;5076806;28;20212;-74
2021/01/03 07:59:33;;;;;;;16.70;10.15;;;1.80;99.90;;;;;;5073759;28;20561;-74
2021/01/03 08:02:00;;;;;;;14.57;10.30;;;1.80;99.90;;;;;;5078071;28;20181;-74
2021/01/03 08:04:29;;;;;;;18.40;12.30;;;1.80;99.90;;;;;;5074961;28;20186;-75
2021/01/03 08:07:16;;;;;;;12.90;9.05;;;1.80;99.90;;;;;;5071962;28;20637;-74
2021/01/03 08:09:42;;;;;;;16.77;10.40;;;1.90;99.90;;;;;;5067918;28;20654;-73
2021/01/03 08:12:09;;;;;;;13.67;9.00;;;1.90;99.90;;;;;;5073547;28;20182;-73
2021/01/03 08:14:40;;;;;;;18.67;11.10;;;2.00;99.90;;;;;;5074534;28;20213;-73
2021/01/03 08:17:06;;;;;;;15.38;10.77;;;2.00;99.90;;;;;;5065780;28;20181;-73
2021/01/03 08:19:32;;;;;;;16.95;10.93;;;2.00;99.90;;;;;;5073233;28;20178;-74
2021/01/03 08:22:00;;;;;;;17.77;11.73;;;2.00;99.90;;;;;;5075947;28;20186;-73
2021/01/03 08:24:28;;;;;;;15.82;10.27;;;2.10;99.90;;;;;;5070641;28;20185;-74
2021/01/03 08:27:14;;;;;;;19.15;10.30;;;2.10;99.90;;;;;;5069438;28;20664;-74
2021/01/03 08:29:44;;;;;;;16.10;10.23;;;2.10;99.90;;;;;;5071219;28;20524;-74
2021/01/03 08:32:17;;;;;;;15.57;9.95;;;2.10;99.90;;;;;;5070770;28;20208;-73
2021/01/03 08:34:43;;;;;;;18.85;12.13;;;2.20;99.90;;;;;;5070713;28;20243;-73
2021/01/03 08:37:29;;;;;;;17.30;11.53;;;2.20;99.90;;;;;;5073442;28;20197;-78
2021/01/03 08:39:56;;;;;;;16.30;9.93;;;2.20;99.90;;;;;;5074039;28;20273;-73
2021/01/03 08:42:40;;;;;;;14.10;9.70;;;2.20;99.90;;;;;;5073093;28;20182;-73
2021/01/03 08:45:08;;;;;;;16.20;10.95;;;2.20;99.90;;;;;;5072723;28;20283;-73
2021/01/03 08:47:39;;;;;;;16.40;11.00;;;2.30;99.90;;;;;;5070143;28;20968;-73
2021/01/03 08:50:18;;;;;;;16.00;9.52;;;2.20;99.90;;;;;;5074054;28;20197;-73
2021/01/03 08:53:00;;;;;;;18.58;12.00;;;2.30;99.90;;;;;;5069801;28;20735;-74
2021/01/03 08:55:29;;;;;;;14.77;10.60;;;2.30;99.90;;;;;;5070971;28;20732;-74
2021/01/03 08:58:02;;;;;;;17.08;10.05;;;2.30;99.90;;;;;;5072887;28;20194;-73
2021/01/03 09:00:33;;;;;;;16.98;11.45;;;2.30;99.90;;;;;;5070395;28;20194;-76
2021/01/03 09:03:02;;;;;;;17.10;11.18;;;2.30;99.90;;;;;;5070554;28;20618;-74
2021/01/03 09:05:32;;;;;;;14.07;9.88;;;2.30;99.90;;;;;;5069278;28;20217;-74
2021/01/03 09:07:59;;;;;;;14.95;11.55;;;2.40;99.90;;;;;;5070626;28;20189;-76
2021/01/03 09:10:30;;;;;;;18.60;11.45;;;2.30;99.90;;;;;;5073273;28;20204;-77
2021/01/03 09:13:26;;;;;;;17.90;10.70;;;2.40;99.90;;;;;;5068732;28;20584;-74
2021/01/03 09:16:22;;;;;;;14.05;9.60;;;2.40;99.90;;;;;;5063980;28;20194;-74
2021/01/03 09:18:56;;;;;;;13.68;9.52;;;2.40;99.90;;;;;;5059551;28;20197;-74
2021/01/03 09:21:22;;;;;;;15.75;10.18;;;2.40;99.90;;;;;;5071295;28;20196;-74
2021/01/03 09:23:57;;;;;;;16.27;9.20;;;2.40;99.90;;;;;;5063348;28;20185;-74
2021/01/03 09:26:30;;;;;;;14.20;9.15;;;2.40;99.90;;;;;;5070378;28;20228;-79
2021/01/03 09:29:25;;;;;;;15.90;10.43;;;2.50;99.90;;;;;;5070824;28;20181;-74
2021/01/03 09:32:24;;;;;;;16.45;11.27;;;2.50;99.90;;;;;;5063439;28;20586;-74
2021/01/03 09:35:02;;;;;;;18.58;11.60;;;2.50;99.90;;;;;;5075194;28;20222;-74
2021/01/03 09:37:30;;;;;;;15.13;10.05;;;2.50;99.90;;;;;;5066606;28;20270;-75
2021/01/03 09:40:31;;;;;;;14.43;10.05;;;2.50;99.90;;;;;;5065872;28;20186;-74
2021/01/03 09:43:20;;;;;;;15.70;10.80;;;2.60;99.90;;;;;;5060587;28;20216;-74
2021/01/03 09:46:19;;;;;;;18.35;11.32;;;2.70;99.90;;;;;;5067684;28;20219;-74
2021/01/03 09:48:46;;;;;;;14.23;11.27;;;2.70;99.90;;;;;;5069053;28;20313;-74
2021/01/03 09:51:11;;;;;;;18.52;12.00;;;2.80;99.90;;;;;;5072129;28;20174;-74
2021/01/03 09:53:39;;;;;;;15.73;10.27;;;2.90;99.90;;;;;;5069258;28;20568;-74
2021/01/03 09:56:13;;;;;;;14.82;10.57;;;3.00;99.90;;;;;;5071848;28;20178;-74
2021/01/03 09:58:42;;;;;;;13.15;9.77;;;3.10;99.90;;;;;;5066885;28;20210;-74
2021/01/03 10:01:23;;;;;;;13.82;9.57;;;3.10;99.90;;;;;;5064991;28;20265;-74
2021/01/03 10:03:48;;;;;;;16.23;10.65;;;3.20;99.90;;;;;;5067418;28;20198;-74
2021/01/03 10:06:29;;;;;;;15.63;10.60;;;3.20;99.90;;;;;;5069937;28;20181;-74
2021/01/03 10:09:12;;;;;;;14.60;9.20;;;3.20;99.90;;;;;;5071350;28;20260;-74
2021/01/03 10:11:39;;;;;;;16.30;10.50;;;3.30;99.90;;;;;;5071920;28;20252;-74
2021/01/03 10:14:11;;;;;;;15.25;10.18;;;3.30;99.90;;;;;;5071029;28;20592;-73
2021/01/03 10:16:39;;;;;;;14.95;9.95;;;3.30;99.90;;;;;;5069674;28;20738;-74
2021/01/03 10:19:19;;;;;;;18.20;10.02;;;3.40;99.90;;;;;;5072178;28;20276;-76
2021/01/03 10:21:47;;;;;;;16.08;10.43;;;3.40;99.90;;;;;;5071390;28;20635;-74
2021/01/03 10:24:17;;;;;;;15.27;9.63;;;3.30;99.90;;;;;;5074075;28;20204;-74
2021/01/03 10:26:46;;;;;;;14.32;9.27;;;3.30;99.90;;;;;;5067690;28;20182;-74
2021/01/03 10:29:12;;;;;;;13.90;9.20;;;3.30;99.90;;;;;;5071890;28;20186;-74
2021/01/03 10:31:48;;;;;;;15.97;9.70;;;3.30;99.90;;;;;;5068094;28;20192;-74
2021/01/03 10:34:18;;;;;;;16.65;11.10;;;3.30;99.90;;;;;;5067597;28;20210;-74
2021/01/03 10:36:44;;;;;;;12.00;8.65;;;3.30;99.90;;;;;;5064969;28;20649;-74
2021/01/03 10:39:11;;;;;;;15.32;10.80;;;3.20;99.90;;;;;;5068618;28;20668;-74
2021/01/03 10:41:38;;;;;;;15.48;10.25;;;3.20;99.90;;;;;;5078552;28;20197;-74
2021/01/03 10:44:09;;;;;;;13.52;9.32;;;3.10;99.90;;;;;;5068606;28;20198;-74
2021/01/03 10:46:35;;;;;;;13.98;10.20;;;3.10;99.90;;;;;;5068715;28;20216;-74
2021/01/03 10:49:01;;;;;;;14.05;9.30;;;3.10;99.90;;;;;;5069111;28;20225;-74
2021/01/03 10:51:45;;;;;;;12.53;9.17;;;3.00;99.90;;;;;;5071591;28;20186;-75
2021/01/03 10:54:28;;;;;;;13.90;9.27;;;3.00;99.90;;;;;;5060486;28;20209;-74
2021/01/03 10:56:56;;;;;;;13.20;9.27;;;3.00;99.90;;;;;;5066807;28;20576;-74
2021/01/03 10:59:23;;;;;;;14.18;9.43;;;3.00;99.90;;;;;;5072008;28;20527;-74
2021/01/03 11:01:49;;;;;;;13.25;10.38;;;3.00;99.90;;;;;;5067126;28;20179;-74
2021/01/03 11:04:23;;;;;;;13.57;10.40;;;3.00;99.90;;;;;;5071793;28;20265;-74
2021/01/03 11:06:51;;;;;;;15.23;10.32;;;3.00;99.90;;;;;;5069182;28;20259;-74
2021/01/03 11:09:20;;;;;;;15.05;10.57;;;3.00;99.90;;;;;;5066466;28;20239;-77
2021/01/03 11:11:46;;;;;;;12.75;8.55;;;3.00;99.90;;;;;;5071959;28;20185;-74
2021/01/03 11:14:12;;;;;;;14.18;9.13;;;3.00;99.90;;;;;;5067095;28;20217;-74
2021/01/03 11:16:40;;;;;;;13.90;9.07;;;3.00;99.90;;;;;;5068568;28;20239;-74
2021/01/03 11:19:08;;;;;;;14.27;9.77;;;3.00;99.90;;;;;;5071701;28;20190;-74
2021/01/03 11:21:34;;;;;;;12.27;8.38;;;3.00;99.90;;;;;;5068414;28;20188;-73
2021/01/03 11:24:00;;;;;;;11.60;8.23;;;3.10;99.90;;;;;;5067090;28;20676;-73
2021/01/03 11:26:31;;;;;;;11.60;8.83;;;3.10;99.90;;;;;;5070675;28;20226;-74
2021/01/03 11:28:57;;;;;;;11.40;9.10;;;3.10;99.90;;;;;;5071544;28;20225;-73
2021/01/03 11:31:34;;;;;;;14.80;8.98;;;3.20;99.90;;;;;;5066818;28;20196;-73
2021/01/03 11:34:00;;;;;;;12.65;9.18;;;3.20;99.90;;;;;;5071713;28;20264;-73
2021/01/03 11:36:26;;;;;;;12.33;8.67;;;3.30;99.90;;;;;;5064463;28;20210;-73
2021/01/03 11:38:51;;;;;;;13.23;8.83;;;3.30;99.90;;;;;;5066632;28;20616;-73
2021/01/03 11:41:17;;;;;;;12.80;9.13;;;3.30;99.90;;;;;;5071480;28;20919;-73
2021/01/03 11:43:42;;;;;;;14.37;10.10;;;3.30;99.90;;;;;;5071758;28;20178;-72
2021/01/03 11:46:08;;;;;;;14.13;9.57;;;3.30;99.90;;;;;;5071975;28;20185;-72
2021/01/03 11:48:33;;;;;;;13.30;9.83;;;3.30;99.90;;;;;;5072414;28;20233;-73
2021/01/03 11:50:59;;;;;;;13.30;9.30;;;3.40;99.90;;;;;;5074880;28;20182;-72
2021/01/03 11:53:25;;;;;;;13.47;8.93;;;3.40;99.90;;;;;;5071278;28;20728;-73
2021/01/03 11:55:50;;;;;;;14.60;10.13;;;3.40;99.90;;;;;;5073302;28;20182;-72
2021/01/03 11:58:16;;;;;;;16.00;10.53;;;3.50;99.90;;;;;;5074302;28;20251;-73
2021/01/03 12:00:41;;;;;;;14.87;10.23;;;3.50;99.90;;;;;;5073902;28;20526;-72
2021/01/03 12:03:07;;;;;;;13.57;10.10;;;3.50;99.90;;;;;;5070527;28;20188;-72
2021/01/03 12:05:32;;;;;;;12.73;8.90;;;3.60;99.90;;;;;;5071061;28;20182;-72
2021/01/03 12:07:58;;;;;;;9.67;7.87;;;3.60;99.90;;;;;;5071074;28;20239;-72
2021/01/03 12:10:24;;;;;;;13.43;9.90;;;3.60;99.90;;;;;;5071529;28;20186;-73
2021/01/03 12:12:49;;;;;;;17.57;10.87;;;3.50;99.90;;;;;;5074672;28;20424;-73
2021/01/03 12:15:15;;;;;;;13.83;10.03;;;3.50;99.90;;;;;;5070926;28;20208;-72
2021/01/03 12:17:40;;;;;;;12.80;8.20;;;3.50;99.90;;;;;;5078823;28;20209;-72
2021/01/03 12:20:07;;;;;;;14.17;9.47;;;3.50;99.90;;;;;;5071621;28;20320;-72
2021/01/03 12:22:33;;;;;;;13.88;10.77;;;3.50;99.90;;;;;;5074212;28;20185;-72
2021/01/03 12:24:58;;;;;;;17.98;11.23;;;3.60;99.90;;;;;;5069997;28;20190;-72
2021/01/03 12:27:24;;;;;;;13.60;9.73;;;3.60;99.90;;;;;;5069205;28;20192;-72
2021/01/03 12:29:50;;;;;;;15.30;11.00;;;3.60;99.90;;;;;;5074441;28;20331;-72
2021/01/03 12:32:16;;;;;;;13.50;10.33;;;3.60;99.90;;;;;;5069784;28;20197;-73
2021/01/03 12:34:42;;;;;;;15.27;10.53;;;3.60;99.90;;;;;;5074311;28;20574;-72
2021/01/03 12:37:10;;;;;;;13.90;10.77;;;3.60;99.90;;;;;;5073678;28;20439;-73
2021/01/03 12:39:36;;;;;;;11.48;8.57;;;3.60;99.90;;;;;;5073801;28;20235;-72
2021/01/03 12:42:03;;;;;;;14.90;8.93;;;3.70;99.90;;;;;;5073982;28;20214;-72
2021/01/03 12:44:28;;;;;;;15.70;12.50;;;3.70;99.90;;;;;;5074038;28;20201;-73
2021/01/03 12:47:00;;;;;;;15.63;10.63;;;3.70;99.90;;;;;;5069674;28;20830;-72
2021/01/03 12:49:30;;;;;;;15.40;10.88;;;3.80;99.90;;;;;;5073546;28;20197;-73
2021/01/03 12:51:57;;;;;;;14.65;10.80;;;3.80;99.90;;;;;;5069920;28;20177;-73
2021/01/03 12:54:23;;;;;;;15.25;9.75;;;3.80;99.90;;;;;;5072089;28;20225;-73
2021/01/03 12:56:48;;;;;;;18.20;9.75;;;3.80;99.90;;;;;;5067731;28;20213;-73
2021/01/03 12:59:15;;;;;;;13.87;9.50;;;3.80;99.90;;;;;;5078849;28;20201;-74
2021/01/03 13:01:43;;;;;;;16.00;10.70;;;3.90;99.90;;;;;;5068633;28;20178;-73
2021/01/03 13:04:08;;;;;;;11.05;8.93;;;3.90;99.90;;;;;;5066763;28;20178;-73